createdAt,value
2023-04-04T00:00:02.913Z,1.2
2023-04-04T00:20:02.440Z,0.9
2023-04-04T00:40:03.110Z,0.7
2023-04-04T01:00:02.607Z,0.5
2023-04-04T01:20:02.406Z,0.4
2023-04-04T01:40:02.816Z,0.2
2023-04-04T02:00:02.350Z,0
2023-04-04T02:20:02.673Z,-0.2
2023-04-04T02:40:03.159Z,-0.4
2023-04-04T03:00:02.566Z,-0.6
2023-04-04T03:20:03.017Z,-0.7
2023-04-04T03:40:02.496Z,-0.9
2023-04-04T04:00:02.949Z,-0.9
2023-04-04T04:20:02.623Z,-1
2023-04-04T04:40:02.930Z,-1.2
2023-04-04T05:00:02.182Z,-1.4
2023-04-04T05:20:02.572Z,-1.3
2023-04-04T05:40:03.097Z,-0.9
2023-04-04T06:00:02.463Z,-0.5
2023-04-04T06:20:03.029Z,0.1
2023-04-04T06:40:02.471Z,0.7
2023-04-04T07:00:02.914Z,1.4
2023-04-04T07:20:03.560Z,2.9
2023-04-04T07:40:02.353Z,4.4
2023-04-04T08:00:02.951Z,6
2023-04-04T08:20:02.848Z,7.6
2023-04-04T08:40:02.453Z,7.9
2023-04-04T09:00:03.312Z,7.5
2023-04-04T09:20:02.248Z,7.2
2023-04-04T09:40:02.712Z,8.7
2023-04-04T10:00:02.260Z,8.1
2023-04-04T10:20:03.320Z,8.3
2023-04-04T10:40:02.787Z,8.5
2023-04-04T11:00:02.427Z,7.5
2023-04-04T11:20:02.946Z,9.5
2023-04-04T11:40:03.118Z,8.3
2023-04-04T12:00:02.832Z,8.9
2023-04-04T12:20:03.572Z,9.3
2023-04-04T12:40:03.800Z,8.5
2023-04-04T13:00:02.356Z,8.2
2023-04-04T13:20:03.180Z,8.2
2023-04-04T13:40:02.895Z,7.8
2023-04-04T14:00:03.064Z,7.7
2023-04-04T14:20:02.585Z,7.9
2023-04-04T14:40:02.862Z,7.6
2023-04-04T15:00:02.649Z,7.5
2023-04-04T15:20:02.942Z,7.5
2023-04-04T15:40:02.381Z,7.4
2023-04-04T16:00:02.795Z,7.1
2023-04-04T16:20:02.711Z,6.9
2023-04-04T16:40:03.643Z,6.8
2023-04-04T17:00:03.270Z,6.7
2023-04-04T17:20:03.061Z,6.5
2023-04-04T17:40:03.068Z,6.3
2023-04-04T18:00:03.210Z,6.2
2023-04-04T18:20:03.142Z,6
2023-04-04T18:40:02.955Z,5.9
2023-04-04T19:00:02.491Z,5.6
2023-04-04T19:20:02.465Z,5.3
2023-04-04T19:40:02.945Z,4.8
2023-04-04T20:00:03.201Z,4.3
2023-04-04T20:20:02.582Z,3.9
2023-04-04T20:40:02.206Z,3.5
2023-04-04T21:00:03.081Z,3.1
2023-04-04T21:20:03.104Z,2.7
2023-04-04T21:40:03.087Z,2.4
2023-04-04T22:00:03.078Z,2.1
2023-04-04T22:20:02.945Z,1.8
2023-04-04T22:40:02.396Z,1.5
2023-04-04T23:00:03.310Z,1.3
2023-04-04T23:20:03.381Z,1.1
2023-04-04T23:40:02.624Z,0.9
